Terminal Aerodrome Forecast
Issued by NWS

Home | Current Version | Previous Version | Text Only | Print | Product List | Glossary On
Versions: 1 2 3 4 5 6 7 8 9 10 11 12 13 14 15 16 17 18
000
FTUS43 KDVN 182342
TAFBRL
TAF
KBRL 182342Z 1900/1924 18006KT P6SM VCTS SCT050CB BKN200
      TEMPO 1900/1901 3SM -TSRA BKN030CB OVC080
     FM190200 01004KT P6SM BKN150
     FM190900 VRB03KT 2SM BR SCT010
     FM191500 16005KT P6SM SKC=

USA.gov is the U.S. government's official web portal to all federal, state and local government web resources and services.